createdAt,value
2023-05-01T00:02:09.962Z,8.73
2023-05-01T00:04:38.303Z,8.61
2023-05-01T00:07:06.665Z,8.64
2023-05-01T00:09:35.148Z,8.85
2023-05-01T00:12:03.983Z,8.68
2023-05-01T00:14:32.953Z,8.51
2023-05-01T00:17:01.308Z,8.34
2023-05-01T00:19:30.283Z,8.30
2023-05-01T00:21:58.659Z,8.43
2023-05-01T00:24:27.677Z,8.29
2023-05-01T00:26:55.896Z,8.07
2023-05-01T00:29:23.455Z,8.33
2023-05-01T00:31:51.917Z,8.12
2023-05-01T00:34:20.971Z,8.09
2023-05-01T00:36:49.991Z,7.81
2023-05-01T00:39:18.359Z,8.16
2023-05-01T00:41:46.630Z,8.27
2023-05-01T00:44:16.902Z,8.19
2023-05-01T00:46:45.157Z,7.94
2023-05-01T00:49:13.757Z,7.94
2023-05-01T00:51:43.047Z,7.74
2023-05-01T00:54:11.299Z,7.78
2023-05-01T00:56:39.955Z,7.77
2023-05-01T00:59:08.282Z,7.67
2023-05-01T01:01:37.395Z,7.45
2023-05-01T01:04:06.716Z,7.77
2023-05-01T01:06:47.474Z,7.45
2023-05-01T01:09:53.061Z,7.44
2023-05-01T01:12:33.119Z,7.68
2023-05-01T01:15:16.301Z,7.60
2023-05-01T01:18:10.050Z,7.40
2023-05-01T01:21:08.828Z,7.47
2023-05-01T01:24:17.212Z,7.59
2023-05-01T01:27:26.879Z,7.61
2023-05-01T01:30:35.907Z,7.58
2023-05-01T01:33:50.440Z,7.21
2023-05-01T01:36:26.724Z,7.21
2023-05-01T01:39:10.959Z,7.31
2023-05-01T01:41:40.642Z,7.49
2023-05-01T01:44:10.444Z,7.35
2023-05-01T01:46:41.636Z,7.17
2023-05-01T01:49:21.090Z,7.12
2023-05-01T01:51:51.752Z,6.84
2023-05-01T01:54:36.162Z,6.71
2023-05-01T01:57:08.569Z,6.72
2023-05-01T01:59:36.857Z,6.57
2023-05-01T02:02:07.456Z,6.82
2023-05-01T02:04:37.076Z,6.87
2023-05-01T02:07:07.546Z,6.66
2023-05-01T02:09:36.760Z,6.75
2023-05-01T02:12:08.786Z,6.86
2023-05-01T02:14:38.254Z,6.94
2023-05-01T02:17:07.880Z,6.67
2023-05-01T02:19:40.683Z,6.82
2023-05-01T02:22:11.914Z,6.73
2023-05-01T02:24:44.484Z,6.66
2023-05-01T02:27:21.944Z,6.73
2023-05-01T02:29:53.757Z,6.82
2023-05-01T02:32:23.012Z,6.81
2023-05-01T02:34:51.447Z,6.73
2023-05-01T02:37:19.612Z,6.69
2023-05-01T02:39:49.022Z,6.67
2023-05-01T02:42:20.589Z,6.33
2023-05-01T02:44:55.636Z,6.14
2023-05-01T02:47:25.261Z,6.19
2023-05-01T02:49:55.543Z,6.04
2023-05-01T02:52:24.391Z,6.05
2023-05-01T02:54:51.967Z,6.05
2023-05-01T02:57:20.971Z,6.35
2023-05-01T02:59:49.973Z,6.57
2023-05-01T03:02:18.530Z,6.48
2023-05-01T03:04:47.038Z,6.30
2023-05-01T03:07:15.512Z,6.41
2023-05-01T03:09:43.723Z,5.99
2023-05-01T03:12:11.947Z,6.19
2023-05-01T03:14:41.256Z,5.96
2023-05-01T03:17:09.427Z,6.08
2023-05-01T03:19:37.700Z,6.07
2023-05-01T03:22:06.003Z,6.19
2023-05-01T03:24:34.728Z,6.36
2023-05-01T03:27:03.800Z,6.04
2023-05-01T03:29:32.054Z,5.90
2023-05-01T03:32:01.143Z,5.69
2023-05-01T03:34:29.792Z,5.59
2023-05-01T03:36:59.086Z,5.89
2023-05-01T03:39:28.122Z,5.85
2023-05-01T03:42:06.824Z,6.05
2023-05-01T03:44:35.908Z,6.01
2023-05-01T03:47:05.036Z,6.26
2023-05-01T03:49:34.038Z,6.27
2023-05-01T03:52:03.028Z,6.29
2023-05-01T03:54:31.390Z,6.41
2023-05-01T03:57:00.043Z,6.33
2023-05-01T03:59:28.277Z,6.33
2023-05-01T04:01:57.306Z,6.51
2023-05-01T04:04:26.861Z,6.38
2023-05-01T04:06:55.142Z,6.58
2023-05-01T04:09:23.424Z,6.27
2023-05-01T04:11:52.408Z,6.50
2023-05-01T04:14:20.600Z,6.50
2023-05-01T04:16:49.833Z,6.76
2023-05-01T04:19:18.031Z,7.90
2023-05-01T04:21:46.666Z,12.03
2023-05-01T04:24:14.889Z,13.16
2023-05-01T04:26:43.473Z,15.21
2023-05-01T04:29:11.719Z,15.94
2023-05-01T04:31:39.056Z,14.76
2023-05-01T04:34:08.059Z,11.17
2023-05-01T04:36:36.711Z,11.51
2023-05-01T04:39:05.573Z,11.91
2023-05-01T04:41:33.726Z,15.78
2023-05-01T04:44:01.924Z,17.66
2023-05-01T04:46:29.228Z,17.32
2023-05-01T04:48:57.269Z,16.14
2023-05-01T04:51:24.622Z,17.31
2023-05-01T04:53:52.751Z,17.84
2023-05-01T04:56:20.003Z,15.72
2023-05-01T04:58:47.464Z,15.49
2023-05-01T05:01:15.704Z,15.39
2023-05-01T05:03:43.253Z,16.11
2023-05-01T05:06:11.635Z,15.30
2023-05-01T05:08:39.977Z,15.98
2023-05-01T05:11:07.662Z,15.09
2023-05-01T05:13:34.957Z,14.49
2023-05-01T05:16:02.314Z,15.48
2023-05-01T05:18:29.560Z,15.03
2023-05-01T05:20:58.604Z,18.08
2023-05-01T05:23:25.936Z,18.83
2023-05-01T05:25:53.188Z,15.92
2023-05-01T05:28:20.401Z,16.46
2023-05-01T05:30:51.392Z,14.59
2023-05-01T05:33:23.044Z,15.04
2023-05-01T05:35:50.835Z,17.76
2023-05-01T05:38:20.566Z,15.43
2023-05-01T05:40:47.850Z,13.48
2023-05-01T05:43:15.078Z,13.50
2023-05-01T05:45:42.442Z,13.65
2023-05-01T05:48:09.862Z,14.75
2023-05-01T05:50:37.190Z,13.94
2023-05-01T05:53:09.154Z,13.29
2023-05-01T05:55:36.386Z,13.75
2023-05-01T05:58:03.572Z,13.75
2023-05-01T06:00:30.948Z,13.61
2023-05-01T06:02:58.375Z,13.67
2023-05-01T06:05:26.060Z,14.13
2023-05-01T06:07:53.374Z,13.95
2023-05-01T06:10:21.462Z,14.09
2023-05-01T06:12:59.666Z,14.78
2023-05-01T06:15:42.188Z,15.17
2023-05-01T06:18:09.783Z,14.08
2023-05-01T06:20:37.208Z,13.71
2023-05-01T06:23:04.551Z,13.65
2023-05-01T06:25:32.591Z,13.59
2023-05-01T06:27:59.863Z,13.41
2023-05-01T06:30:27.141Z,13.36
2023-05-01T06:32:54.409Z,13.86
2023-05-01T06:35:22.454Z,13.92
2023-05-01T06:37:51.513Z,14.39
2023-05-01T06:40:18.780Z,15.41
2023-05-01T06:42:46.883Z,20.35
2023-05-01T06:45:14.075Z,23.71
2023-05-01T06:47:41.313Z,22.56
2023-05-01T06:50:09.652Z,23.24
2023-05-01T06:52:36.988Z,23.71
2023-05-01T06:55:04.390Z,23.01
2023-05-01T06:57:31.627Z,22.04
2023-05-01T06:59:59.091Z,21.47
2023-05-01T07:02:26.960Z,19.16
2023-05-01T07:04:55.947Z,18.55
2023-05-01T07:07:23.674Z,16.99
2023-05-01T07:09:50.978Z,17.17
2023-05-01T07:12:18.211Z,16.99
2023-05-01T07:14:45.384Z,16.91
2023-05-01T07:17:12.670Z,17.39
2023-05-01T07:19:43.477Z,16.97
2023-05-01T07:22:10.737Z,17.40
2023-05-01T07:24:37.937Z,17.40
2023-05-01T07:27:05.166Z,16.77
2023-05-01T07:29:32.391Z,16.99
2023-05-01T07:31:59.905Z,16.88
2023-05-01T07:34:27.157Z,17.36
2023-05-01T07:36:54.379Z,17.51
2023-05-01T07:39:21.620Z,16.97
2023-05-01T07:41:48.792Z,17.16
2023-05-01T07:44:16.100Z,17.41
2023-05-01T07:46:43.422Z,17.20
2023-05-01T07:49:10.711Z,16.83
2023-05-01T07:51:37.954Z,16.69
2023-05-01T07:54:08.913Z,17.68
2023-05-01T07:56:36.142Z,17.49
2023-05-01T07:59:03.386Z,17.66
2023-05-01T08:01:30.779Z,17.08
2023-05-01T08:03:58.135Z,17.50
2023-05-01T08:06:25.507Z,18.06
2023-05-01T08:08:52.757Z,18.21
2023-05-01T08:11:20.009Z,18.10
2023-05-01T08:13:47.297Z,18.71
2023-05-01T08:16:21.973Z,18.88
2023-05-01T08:18:51.198Z,18.10
2023-05-01T08:21:18.465Z,18.42
2023-05-01T08:23:45.662Z,18.59
2023-05-01T08:26:14.660Z,18.18
2023-05-01T08:28:43.769Z,18.45
2023-05-01T08:31:11.219Z,18.50
2023-05-01T08:33:38.504Z,18.75
2023-05-01T08:36:06.006Z,18.36
2023-05-01T08:38:33.227Z,18.35
2023-05-01T08:41:01.916Z,18.70
2023-05-01T08:43:32.133Z,18.92
2023-05-01T08:46:04.277Z,19.36
2023-05-01T08:48:32.946Z,19.15
2023-05-01T08:51:02.489Z,19.45
2023-05-01T08:53:33.715Z,20.33
2023-05-01T08:56:08.278Z,19.63
2023-05-01T08:58:38.320Z,19.57
2023-05-01T09:01:07.960Z,19.87
2023-05-01T09:03:37.490Z,19.95
2023-05-01T09:06:05.988Z,19.83
2023-05-01T09:08:34.049Z,20.31
2023-05-01T09:11:03.944Z,19.93
2023-05-01T09:13:33.496Z,19.90
2023-05-01T09:16:01.644Z,20.11
2023-05-01T09:18:29.702Z,20.27
2023-05-01T09:20:58.745Z,20.21
2023-05-01T09:23:28.403Z,20.02
2023-05-01T09:25:58.325Z,19.89
2023-05-01T09:28:44.054Z,20.12
2023-05-01T09:31:24.152Z,20.22
2023-05-01T09:34:06.171Z,20.26
2023-05-01T09:36:37.739Z,20.39
2023-05-01T09:39:05.742Z,20.16
2023-05-01T09:41:34.847Z,20.12
2023-05-01T09:44:03.389Z,20.27
2023-05-01T09:46:44.096Z,20.72
2023-05-01T09:49:12.125Z,20.54
2023-05-01T09:51:41.191Z,20.40
2023-05-01T09:54:20.115Z,20.63
2023-05-01T09:56:49.749Z,20.68
2023-05-01T09:59:21.340Z,20.97
2023-05-01T10:01:50.855Z,20.52
2023-05-01T10:04:33.988Z,20.43
2023-05-01T10:07:13.748Z,20.28
2023-05-01T10:09:42.565Z,20.28
2023-05-01T10:12:11.488Z,20.61
2023-05-01T10:14:56.880Z,21.12
2023-05-01T10:17:25.966Z,21.21
2023-05-01T10:19:54.195Z,21.32
2023-05-01T10:22:24.391Z,21.86
2023-05-01T10:24:52.584Z,20.97
2023-05-01T10:27:24.057Z,21.11
2023-05-01T10:29:54.621Z,20.78
2023-05-01T10:32:24.014Z,21.18
2023-05-01T10:34:59.440Z,20.83
2023-05-01T10:37:42.257Z,21.00
2023-05-01T10:40:41.210Z,21.36
2023-05-01T10:43:32.293Z,20.98
2023-05-01T10:46:10.500Z,20.94
2023-05-01T10:48:45.603Z,20.90
2023-05-01T10:51:27.778Z,21.46
2023-05-01T10:54:14.491Z,21.24
2023-05-01T10:56:44.306Z,21.36
2023-05-01T10:59:13.295Z,21.61
2023-05-01T11:01:47.909Z,21.12
2023-05-01T11:04:22.197Z,21.34
2023-05-01T11:07:02.407Z,21.89
2023-05-01T11:09:55.601Z,21.41
2023-05-01T11:12:46.679Z,21.43
2023-05-01T11:15:33.025Z,21.45
2023-05-01T11:18:02.619Z,21.56
2023-05-01T11:20:47.624Z,21.75
2023-05-01T11:23:18.235Z,21.85
2023-05-01T11:25:48.471Z,21.02
2023-05-01T11:28:20.937Z,21.78
2023-05-01T11:30:50.043Z,21.55
2023-05-01T11:33:23.593Z,21.18
2023-05-01T11:35:59.530Z,21.25
2023-05-01T11:38:27.620Z,21.33
2023-05-01T11:41:00.760Z,21.48
2023-05-01T11:43:30.163Z,21.77
2023-05-01T11:46:03.431Z,21.89
2023-05-01T11:48:32.914Z,21.92
2023-05-01T11:51:04.270Z,21.89
2023-05-01T11:53:33.264Z,21.34
2023-05-01T11:56:06.919Z,21.69
2023-05-01T11:58:41.521Z,21.66
2023-05-01T12:01:13.013Z,21.64
2023-05-01T12:03:45.719Z,21.67
2023-05-01T12:06:15.266Z,21.38
2023-05-01T12:08:50.615Z,21.58
2023-05-01T12:11:21.506Z,22.01
2023-05-01T12:13:50.707Z,21.76
2023-05-01T12:16:19.965Z,21.67
2023-05-01T12:18:49.066Z,21.37
2023-05-01T12:21:18.332Z,21.87
2023-05-01T12:23:49.936Z,22.17
2023-05-01T12:26:24.342Z,22.21
2023-05-01T12:29:03.966Z,22.23
2023-05-01T12:31:33.835Z,22.03
2023-05-01T12:34:06.355Z,22.27
2023-05-01T12:36:37.399Z,21.80
2023-05-01T12:39:10.718Z,21.59
2023-05-01T12:41:46.886Z,22.00
2023-05-01T12:44:22.916Z,22.16
2023-05-01T12:47:06.622Z,21.87
2023-05-01T12:49:37.437Z,21.46
2023-05-01T12:52:08.043Z,21.65
2023-05-01T12:54:39.759Z,21.66
2023-05-01T12:57:16.470Z,21.64
2023-05-01T12:59:46.456Z,21.66
2023-05-01T13:02:18.533Z,22.19
2023-05-01T13:04:50.798Z,21.85
2023-05-01T13:07:19.984Z,22.17
2023-05-01T13:09:59.181Z,22.39
2023-05-01T13:12:31.719Z,22.50
2023-05-01T13:15:01.060Z,22.52
2023-05-01T13:17:32.670Z,22.29
2023-05-01T13:20:05.978Z,22.38
2023-05-01T13:22:37.544Z,22.19
2023-05-01T13:25:18.529Z,21.87
2023-05-01T13:27:52.723Z,22.11
2023-05-01T13:30:31.652Z,22.16
2023-05-01T13:33:00.671Z,22.29
2023-05-01T13:35:29.739Z,22.52
2023-05-01T13:38:00.986Z,21.83
2023-05-01T13:40:30.076Z,21.93
2023-05-01T13:42:59.050Z,21.97
2023-05-01T13:45:28.312Z,21.92
2023-05-01T13:47:57.641Z,21.71
2023-05-01T13:50:25.649Z,22.13
2023-05-01T13:52:53.595Z,22.17
2023-05-01T13:55:23.389Z,22.14
2023-05-01T13:57:52.361Z,22.12
2023-05-01T14:00:22.710Z,22.00
2023-05-01T14:02:53.797Z,22.04
2023-05-01T14:05:30.873Z,22.04
2023-05-01T14:07:59.925Z,22.02
2023-05-01T14:10:29.874Z,22.03
2023-05-01T14:12:59.698Z,22.01
2023-05-01T14:15:29.023Z,21.80
2023-05-01T14:18:01.341Z,21.92
2023-05-01T14:20:29.349Z,22.18
2023-05-01T14:22:57.346Z,22.39
2023-05-01T14:25:29.796Z,22.25
2023-05-01T14:28:01.776Z,21.99
2023-05-01T14:30:39.310Z,22.07
2023-05-01T14:33:12.852Z,22.11
2023-05-01T14:35:53.175Z,22.28
2023-05-01T14:38:22.946Z,21.75
2023-05-01T14:40:52.397Z,21.85
2023-05-01T14:43:24.715Z,21.81
2023-05-01T14:45:55.799Z,22.19
2023-05-01T14:48:29.626Z,21.98
2023-05-01T14:50:59.635Z,21.92
2023-05-01T14:53:32.838Z,21.87
2023-05-01T14:56:01.911Z,21.90
2023-05-01T14:58:31.102Z,21.60
2023-05-01T15:00:59.044Z,21.34
2023-05-01T15:03:27.446Z,21.53
2023-05-01T15:05:57.567Z,21.70
2023-05-01T15:08:25.606Z,21.74
2023-05-01T15:10:54.596Z,21.27
2023-05-01T15:13:23.639Z,21.24
2023-05-01T15:15:53.019Z,21.22
2023-05-01T15:18:23.129Z,21.51
2023-05-01T15:20:52.174Z,21.59
2023-05-01T15:23:20.433Z,21.19
2023-05-01T15:25:50.917Z,21.38
2023-05-01T15:28:20.056Z,21.22
2023-05-01T15:30:48.145Z,21.17
2023-05-01T15:33:19.127Z,21.36
2023-05-01T15:35:49.025Z,21.02
2023-05-01T15:38:18.134Z,20.84
2023-05-01T15:40:46.518Z,20.91
2023-05-01T15:43:14.463Z,20.80
2023-05-01T15:45:43.851Z,20.77
2023-05-01T15:48:13.066Z,20.81
2023-05-01T15:50:41.284Z,20.64
2023-05-01T15:53:09.271Z,20.57
2023-05-01T15:55:37.355Z,20.53
2023-05-01T15:58:05.298Z,20.57
2023-05-01T16:00:36.091Z,20.55
2023-05-01T16:03:04.749Z,20.62
2023-05-01T16:05:34.170Z,20.35
2023-05-01T16:08:02.262Z,20.43
2023-05-01T16:10:37.423Z,20.21
2023-05-01T16:13:08.502Z,20.20
2023-05-01T16:15:37.834Z,20.31
2023-05-01T16:18:06.359Z,20.23
2023-05-01T16:20:43.396Z,20.00
2023-05-01T16:23:12.444Z,19.93
2023-05-01T16:25:43.546Z,19.81
2023-05-01T16:28:12.911Z,19.66
2023-05-01T16:30:45.336Z,19.62
2023-05-01T16:33:20.704Z,19.39
2023-05-01T16:35:49.731Z,19.27
2023-05-01T16:38:19.062Z,19.28
2023-05-01T16:40:48.466Z,19.11
2023-05-01T16:43:16.783Z,18.86
2023-05-01T16:45:46.861Z,18.94
2023-05-01T16:48:23.820Z,18.80
2023-05-01T16:50:52.092Z,18.78
2023-05-01T16:53:19.339Z,18.61
2023-05-01T16:55:50.221Z,18.50
2023-05-01T16:58:19.459Z,18.01
2023-05-01T17:00:46.768Z,18.28
2023-05-01T17:03:15.419Z,18.16
2023-05-01T17:05:43.437Z,17.93
2023-05-01T17:08:11.897Z,18.04
2023-05-01T17:10:39.164Z,18.19
2023-05-01T17:13:07.964Z,18.13
2023-05-01T17:15:35.153Z,17.65
2023-05-01T17:18:04.467Z,17.78
2023-05-01T17:20:33.511Z,17.85
2023-05-01T17:23:02.710Z,17.56
2023-05-01T17:25:30.913Z,17.59
2023-05-01T17:27:59.461Z,17.53
2023-05-01T17:30:28.668Z,17.42
2023-05-01T17:32:57.449Z,17.29
2023-05-01T17:35:26.953Z,17.03
2023-05-01T17:37:55.735Z,16.81
2023-05-01T17:40:24.803Z,16.23
2023-05-01T17:42:53.002Z,16.23
2023-05-01T17:45:21.270Z,16.09
2023-05-01T17:47:52.734Z,15.79
2023-05-01T17:50:21.942Z,16.12
2023-05-01T17:52:49.276Z,15.78
2023-05-01T17:55:18.662Z,15.57
2023-05-01T17:57:46.313Z,15.46
2023-05-01T18:00:14.946Z,15.38
2023-05-01T18:02:45.201Z,15.32
2023-05-01T18:05:13.578Z,15.32
2023-05-01T18:07:42.659Z,15.01
2023-05-01T18:10:13.517Z,15.04
2023-05-01T18:12:40.936Z,15.43
2023-05-01T18:15:09.890Z,15.27
2023-05-01T18:17:38.216Z,15.10
2023-05-01T18:20:07.586Z,14.82
2023-05-01T18:22:36.668Z,15.00
2023-05-01T18:25:05.315Z,14.72
2023-05-01T18:27:32.694Z,14.77
2023-05-01T18:30:00.137Z,14.79
2023-05-01T18:32:39.280Z,14.60
2023-05-01T18:35:14.118Z,14.45
2023-05-01T18:37:43.023Z,14.33
2023-05-01T18:40:11.033Z,14.08
2023-05-01T18:42:41.967Z,14.33
2023-05-01T18:45:11.423Z,14.03
2023-05-01T18:47:40.537Z,14.16
2023-05-01T18:50:10.669Z,13.95
2023-05-01T18:52:39.060Z,13.88
2023-05-01T18:55:11.577Z,13.83
2023-05-01T18:57:44.373Z,13.74
2023-05-01T19:00:20.579Z,13.78
2023-05-01T19:02:53.222Z,13.61
2023-05-01T19:05:25.460Z,13.66
2023-05-01T19:07:59.191Z,13.66
2023-05-01T19:10:29.324Z,13.61
2023-05-01T19:12:56.769Z,13.60
2023-05-01T19:15:26.065Z,13.54
2023-05-01T19:17:55.141Z,13.50
2023-05-01T19:20:23.394Z,13.28
2023-05-01T19:22:52.367Z,13.10
2023-05-01T19:25:21.381Z,13.19
2023-05-01T19:27:51.504Z,13.30
2023-05-01T19:30:19.674Z,13.36
2023-05-01T19:32:49.218Z,13.20
2023-05-01T19:35:17.449Z,12.91
2023-05-01T19:37:45.651Z,12.81
2023-05-01T19:40:14.677Z,13.14
2023-05-01T19:42:43.707Z,13.00
2023-05-01T19:45:11.912Z,13.06
2023-05-01T19:47:40.907Z,13.05
2023-05-01T19:50:09.762Z,13.01
2023-05-01T19:52:38.777Z,13.05
2023-05-01T19:55:08.344Z,13.10
2023-05-01T19:57:37.411Z,12.90
2023-05-01T20:00:09.121Z,12.57
2023-05-01T20:02:39.109Z,12.83
2023-05-01T20:05:07.914Z,12.49
2023-05-01T20:07:37.545Z,12.26
2023-05-01T20:10:07.174Z,12.57
2023-05-01T20:12:36.292Z,12.77
2023-05-01T20:15:05.298Z,12.77
2023-05-01T20:17:34.363Z,12.73
2023-05-01T20:20:03.278Z,12.56
2023-05-01T20:22:32.370Z,12.75
2023-05-01T20:25:00.566Z,12.61
2023-05-01T20:27:28.720Z,12.81
2023-05-01T20:29:57.143Z,12.55
2023-05-01T20:32:25.782Z,12.47
2023-05-01T20:34:55.704Z,12.38
2023-05-01T20:37:24.169Z,12.37
2023-05-01T20:39:53.804Z,12.36
2023-05-01T20:42:22.596Z,12.45
2023-05-01T20:44:50.844Z,12.60
2023-05-01T20:47:19.003Z,12.45
2023-05-01T20:49:46.394Z,12.40
2023-05-01T20:52:14.933Z,12.26
2023-05-01T20:54:42.239Z,12.02
2023-05-01T20:57:10.531Z,11.98
2023-05-01T20:59:39.560Z,12.03
2023-05-01T21:02:07.804Z,11.92
2023-05-01T21:04:38.278Z,12.01
2023-05-01T21:07:06.514Z,11.88
2023-05-01T21:09:34.908Z,12.18
2023-05-01T21:12:06.431Z,12.08
2023-05-01T21:14:35.997Z,11.99
2023-05-01T21:17:05.481Z,12.00
2023-05-01T21:19:45.468Z,12.13
2023-05-01T21:22:22.247Z,11.69
2023-05-01T21:24:59.006Z,11.74
2023-05-01T21:27:28.501Z,11.69
2023-05-01T21:30:00.821Z,11.52
2023-05-01T21:32:38.306Z,11.37
2023-05-01T21:35:08.370Z,11.32
2023-05-01T21:37:37.607Z,11.39
2023-05-01T21:40:07.340Z,11.24
2023-05-01T21:42:40.082Z,11.17
2023-05-01T21:45:09.570Z,11.12
2023-05-01T21:47:41.461Z,11.17
2023-05-01T21:50:18.887Z,11.02
2023-05-01T21:52:49.473Z,10.89
2023-05-01T21:55:20.908Z,11.04
2023-05-01T21:57:53.524Z,10.84
2023-05-01T22:00:22.153Z,10.76
2023-05-01T22:02:51.217Z,10.85
2023-05-01T22:05:22.948Z,10.79
2023-05-01T22:07:52.995Z,10.83
2023-05-01T22:10:21.249Z,10.67
2023-05-01T22:12:50.425Z,10.70
2023-05-01T22:15:18.795Z,10.46
2023-05-01T22:17:47.106Z,10.67
2023-05-01T22:20:15.213Z,10.66
2023-05-01T22:22:43.425Z,10.77
2023-05-01T22:25:14.657Z,10.48
2023-05-01T22:27:42.002Z,10.20
2023-05-01T22:30:11.358Z,10.41
2023-05-01T22:32:38.679Z,10.46
2023-05-01T22:35:08.609Z,10.54
2023-05-01T22:37:37.369Z,10.60
2023-05-01T22:40:07.720Z,10.49
2023-05-01T22:42:36.298Z,10.53
2023-05-01T22:45:03.803Z,10.56
2023-05-01T22:47:33.128Z,10.65
2023-05-01T22:50:01.651Z,10.47
2023-05-01T22:52:32.748Z,10.29
2023-05-01T22:55:00.791Z,10.32
2023-05-01T22:57:28.889Z,10.40
2023-05-01T22:59:57.122Z,10.26
2023-05-01T23:02:24.754Z,10.07
2023-05-01T23:04:52.876Z,10.19
2023-05-01T23:07:20.159Z,10.29
2023-05-01T23:09:47.974Z,10.33
2023-05-01T23:12:23.588Z,10.37
2023-05-01T23:14:50.997Z,10.36
2023-05-01T23:17:18.573Z,10.58
2023-05-01T23:19:46.772Z,10.38
2023-05-01T23:22:14.357Z,10.37
2023-05-01T23:24:49.919Z,10.48
2023-05-01T23:27:19.365Z,10.42
2023-05-01T23:29:57.601Z,10.37
2023-05-01T23:32:29.576Z,10.48
2023-05-01T23:35:04.458Z,10.37
2023-05-01T23:37:32.587Z,10.21
2023-05-01T23:40:01.032Z,9.99
2023-05-01T23:42:29.462Z,10.25
2023-05-01T23:44:57.769Z,10.02
2023-05-01T23:47:26.165Z,10.02
2023-05-01T23:49:54.473Z,9.88
2023-05-01T23:52:21.838Z,10.00
2023-05-01T23:54:49.144Z,9.94
2023-05-01T23:57:16.474Z,10.30
2023-05-01T23:59:43.778Z,10.37
